createdAt,value
2019-04-25T00:00:42.205Z,136.60
2019-04-25T00:03:12.277Z,134.22
2019-04-25T00:05:39.620Z,133.32
2019-04-25T00:08:06.811Z,133.15
2019-04-25T00:10:35.170Z,134.35
2019-04-25T00:13:04.514Z,132.93
2019-04-25T00:15:32.002Z,132.78
2019-04-25T00:17:59.053Z,133.78
2019-04-25T00:20:28.435Z,133.65
2019-04-25T00:23:05.785Z,134.12
2019-04-25T00:25:51.317Z,133.72
2019-04-25T00:28:18.646Z,135.20
2019-04-25T00:30:46.083Z,134.05
2019-04-25T00:33:13.269Z,133.40
2019-04-25T00:35:42.521Z,133.97
2019-04-25T00:38:09.330Z,133.60
2019-04-25T00:40:36.437Z,133.90
2019-04-25T00:43:06.028Z,133.67
2019-04-25T00:45:34.859Z,133.80
2019-04-25T00:48:04.289Z,134.47
2019-04-25T00:50:34.429Z,134.87
2019-04-25T00:53:01.474Z,134.32
2019-04-25T00:55:31.481Z,134.65
2019-04-25T00:58:11.491Z,133.72
2019-04-25T01:01:04.244Z,133.70
2019-04-25T01:03:32.422Z,132.70
2019-04-25T01:05:59.512Z,133.63
2019-04-25T01:08:26.615Z,133.27
2019-04-25T01:10:54.280Z,132.80
2019-04-25T01:13:24.140Z,133.63
2019-04-25T01:15:52.855Z,133.60
2019-04-25T01:18:25.192Z,133.30
2019-04-25T01:20:53.591Z,133.40
2019-04-25T01:23:21.663Z,133.50
2019-04-25T01:25:49.479Z,134.50
2019-04-25T01:28:16.565Z,134.45
2019-04-25T01:30:43.916Z,134.00
2019-04-25T01:33:13.467Z,133.72
2019-04-25T01:35:55.772Z,132.80
2019-04-25T01:38:38.326Z,133.97
2019-04-25T01:41:24.190Z,134.52
2019-04-25T01:44:04.545Z,134.27
2019-04-25T01:46:31.943Z,133.52
2019-04-25T01:48:59.263Z,133.57
2019-04-25T01:51:26.352Z,132.72
2019-04-25T01:53:54.830Z,133.72
2019-04-25T01:56:23.032Z,133.05
2019-04-25T01:58:51.610Z,133.70
2019-04-25T02:01:18.643Z,133.60
2019-04-25T02:03:45.670Z,133.00
2019-04-25T02:06:13.635Z,134.18
2019-04-25T02:08:41.279Z,133.35
2019-04-25T02:11:19.901Z,133.80
2019-04-25T02:13:46.941Z,132.12
2019-04-25T02:16:16.435Z,132.25
2019-04-25T02:18:43.630Z,132.75
2019-04-25T02:21:10.902Z,133.22
2019-04-25T02:23:37.941Z,131.57
2019-04-25T02:26:15.284Z,134.63
2019-04-25T02:28:34.312Z,132.55
2019-04-25T02:31:03.786Z,134.10
2019-04-25T02:33:30.315Z,131.97
2019-04-25T02:35:59.440Z,133.00
2019-04-25T02:38:26.511Z,131.55
2019-04-25T02:40:56.297Z,132.40
2019-04-25T02:43:23.987Z,132.57
2019-04-25T02:46:19.738Z,132.57
2019-04-25T02:49:28.971Z,133.35
2019-04-25T02:51:49.725Z,133.12
2019-04-25T02:54:16.840Z,132.72
2019-04-25T02:56:46.428Z,132.07
2019-04-25T02:59:14.925Z,132.70
2019-04-25T03:01:44.346Z,132.82
2019-04-25T03:04:11.550Z,132.55
2019-04-25T03:06:38.889Z,132.47
2019-04-25T03:09:09.741Z,132.43
2019-04-25T03:11:36.809Z,131.63
2019-04-25T03:14:06.996Z,132.93
2019-04-25T03:16:34.735Z,132.55
2019-04-25T03:19:14.693Z,134.20
2019-04-25T03:21:45.222Z,132.47
2019-04-25T03:24:16.350Z,132.12
2019-04-25T03:26:44.331Z,132.35
2019-04-25T03:29:13.644Z,132.75
2019-04-25T03:31:45.005Z,132.15
2019-04-25T03:34:19.120Z,132.57
2019-04-25T03:36:44.457Z,131.85
2019-04-25T03:39:11.481Z,133.18
2019-04-25T03:41:38.552Z,133.90
2019-04-25T03:44:06.471Z,132.60
2019-04-25T03:46:33.673Z,132.70
2019-04-25T03:49:01.223Z,134.27
2019-04-25T03:51:29.041Z,133.78
2019-04-25T03:53:56.084Z,132.57
2019-04-25T03:56:24.508Z,132.90
2019-04-25T03:58:53.957Z,133.65
2019-04-25T04:01:21.044Z,132.10
2019-04-25T04:03:48.420Z,131.72
2019-04-25T04:06:15.712Z,132.05
2019-04-25T04:08:44.458Z,133.27
2019-04-25T04:11:12.127Z,133.67
2019-04-25T04:13:45.255Z,133.67
2019-04-25T04:16:15.373Z,133.93
2019-04-25T04:18:44.460Z,132.75
2019-04-25T04:21:26.910Z,133.35
2019-04-25T04:24:19.478Z,132.40
2019-04-25T04:27:06.728Z,133.55
2019-04-25T04:29:36.295Z,133.82
2019-04-25T04:32:03.563Z,134.35
2019-04-25T04:34:30.928Z,131.35
2019-04-25T04:36:57.979Z,132.30
2019-04-25T04:39:25.021Z,133.40
2019-04-25T04:41:53.507Z,132.72
2019-04-25T04:44:23.999Z,133.15
2019-04-25T04:46:53.855Z,133.22
2019-04-25T04:49:21.163Z,132.40
2019-04-25T04:51:48.213Z,134.55
2019-04-25T04:54:15.520Z,134.12
2019-04-25T04:56:43.842Z,134.90
2019-04-25T04:59:12.864Z,135.37
2019-04-25T05:02:01.111Z,134.60
2019-04-25T05:04:40.004Z,134.67
2019-04-25T05:07:29.727Z,136.32
2019-04-25T05:09:56.765Z,136.90
2019-04-25T05:12:24.132Z,135.85
2019-04-25T05:14:51.301Z,140.25
2019-04-25T05:17:20.420Z,139.05
2019-04-25T05:19:47.440Z,139.77
2019-04-25T05:22:16.886Z,137.47
2019-04-25T05:24:46.732Z,138.10
2019-04-25T05:27:16.660Z,141.37
2019-04-25T05:29:46.288Z,139.95
2019-04-25T05:32:17.297Z,139.62
2019-04-25T05:34:46.133Z,140.05
2019-04-25T05:37:15.160Z,141.57
2019-04-25T05:39:44.099Z,139.95
2019-04-25T05:42:28.993Z,138.88
2019-04-25T05:44:58.395Z,138.65
2019-04-25T05:47:27.185Z,138.18
2019-04-25T05:49:54.385Z,138.40
2019-04-25T05:52:22.001Z,137.65
2019-04-25T05:54:49.665Z,136.28
2019-04-25T05:57:16.757Z,137.15
2019-04-25T05:59:43.889Z,137.25
2019-04-25T06:02:10.968Z,137.37
2019-04-25T06:04:38.131Z,137.43
2019-04-25T06:07:05.729Z,140.90
2019-04-25T06:09:54.254Z,138.72
2019-04-25T06:12:33.541Z,139.18
2019-04-25T06:15:03.466Z,139.25
2019-04-25T06:17:39.180Z,140.20
2019-04-25T06:20:08.013Z,139.97
2019-04-25T06:22:58.325Z,142.25
2019-04-25T06:25:32.315Z,143.15
2019-04-25T06:27:59.215Z,141.55
2019-04-25T06:30:29.607Z,141.22
2019-04-25T06:32:57.674Z,143.35
2019-04-25T06:35:26.087Z,143.78
2019-04-25T06:37:53.755Z,142.82
2019-04-25T06:40:25.098Z,144.00
2019-04-25T06:42:53.636Z,143.07
2019-04-25T06:45:50.091Z,140.62
2019-04-25T06:48:28.966Z,139.88
2019-04-25T06:50:56.458Z,139.47
2019-04-25T06:53:26.057Z,138.77
2019-04-25T06:55:57.449Z,138.52
2019-04-25T06:58:27.326Z,142.65
2019-04-25T07:00:58.779Z,143.40
2019-04-25T07:03:25.150Z,141.50
2019-04-25T07:05:54.829Z,141.75
2019-04-25T07:08:23.743Z,142.95
2019-04-25T07:10:50.801Z,144.85
2019-04-25T07:13:17.857Z,143.68
2019-04-25T07:15:44.936Z,141.57
2019-04-25T07:18:13.867Z,140.73
2019-04-25T07:20:40.945Z,140.97
2019-04-25T07:23:08.012Z,142.28
2019-04-25T07:25:38.711Z,143.65
2019-04-25T07:28:44.064Z,145.20
2019-04-25T07:31:35.843Z,146.45
2019-04-25T07:34:09.896Z,145.75
2019-04-25T07:36:38.467Z,147.95
2019-04-25T07:39:10.667Z,145.75
2019-04-25T07:41:38.510Z,146.82
2019-04-25T07:44:09.958Z,146.77
2019-04-25T07:46:40.004Z,148.07
2019-04-25T07:49:09.841Z,146.75
2019-04-25T07:51:36.848Z,146.98
2019-04-25T07:54:04.543Z,146.35
2019-04-25T07:56:34.294Z,146.47
2019-04-25T07:59:01.583Z,148.75
2019-04-25T08:01:37.504Z,146.72
2019-04-25T08:04:04.433Z,148.15
2019-04-25T08:06:33.388Z,144.75
2019-04-25T08:09:04.052Z,145.85
2019-04-25T08:11:34.175Z,147.98
2019-04-25T08:14:08.266Z,147.28
2019-04-25T08:16:37.319Z,146.32
2019-04-25T08:19:04.483Z,144.55
2019-04-25T08:21:34.412Z,145.07
2019-04-25T08:24:04.656Z,144.95
2019-04-25T08:26:34.966Z,144.68
2019-04-25T08:29:01.511Z,144.62
2019-04-25T08:31:28.576Z,144.95
2019-04-25T08:33:55.613Z,144.85
2019-04-25T08:36:23.416Z,142.45
2019-04-25T08:38:50.539Z,142.95
2019-04-25T08:41:17.591Z,143.32
2019-04-25T08:43:45.450Z,141.30
2019-04-25T08:46:20.606Z,140.30
2019-04-25T08:49:10.210Z,142.53
2019-04-25T08:51:38.507Z,141.37
2019-04-25T08:54:15.182Z,141.22
2019-04-25T08:56:43.941Z,143.37
2019-04-25T08:59:32.710Z,144.07
2019-04-25T09:02:14.596Z,144.62
2019-04-25T09:05:06.105Z,142.30
2019-04-25T09:07:36.427Z,143.62
2019-04-25T09:10:06.499Z,144.45
2019-04-25T09:12:35.598Z,145.20
2019-04-25T09:15:04.196Z,144.90
2019-04-25T09:17:35.601Z,144.15
2019-04-25T09:20:04.022Z,145.80
2019-04-25T09:22:31.429Z,145.22
2019-04-25T09:24:59.103Z,143.95
2019-04-25T09:27:26.910Z,146.40
2019-04-25T09:29:56.101Z,147.72
2019-04-25T09:32:23.851Z,146.53
2019-04-25T09:34:51.222Z,148.45
2019-04-25T09:37:18.398Z,149.35
2019-04-25T09:40:08.761Z,149.82
2019-04-25T09:42:36.938Z,147.68
2019-04-25T09:45:26.140Z,147.22
2019-04-25T09:47:53.507Z,147.78
2019-04-25T09:50:33.960Z,149.18
2019-04-25T09:53:01.292Z,150.12
2019-04-25T09:55:46.953Z,148.47
2019-04-25T09:58:23.904Z,149.75
2019-04-25T10:00:55.607Z,151.87
2019-04-25T10:03:24.035Z,150.82
2019-04-25T10:05:52.193Z,149.47
2019-04-25T10:08:20.294Z,149.85
2019-04-25T10:10:49.640Z,148.65
2019-04-25T10:13:25.179Z,149.35
2019-04-25T10:16:09.399Z,148.57
2019-04-25T10:18:37.055Z,148.78
2019-04-25T10:21:08.312Z,148.40
2019-04-25T10:23:36.178Z,149.72
2019-04-25T10:26:05.275Z,148.78
2019-04-25T10:28:38.735Z,148.40
2019-04-25T10:31:06.866Z,148.35
2019-04-25T10:33:46.956Z,151.60
2019-04-25T10:36:26.166Z,149.85
2019-04-25T10:39:07.253Z,148.40
2019-04-25T10:41:30.688Z,149.57
2019-04-25T10:43:59.754Z,150.72
2019-04-25T10:46:27.521Z,150.18
2019-04-25T10:48:58.282Z,150.80
2019-04-25T10:51:29.328Z,150.93
2019-04-25T10:53:58.699Z,148.10
2019-04-25T10:56:30.591Z,149.35
2019-04-25T10:58:57.825Z,151.15
2019-04-25T11:01:28.844Z,148.72
2019-04-25T11:04:23.229Z,147.72
2019-04-25T11:06:53.970Z,148.55
2019-04-25T11:09:26.269Z,149.15
2019-04-25T11:11:54.835Z,147.45
2019-04-25T11:14:46.428Z,149.23
2019-04-25T11:17:16.685Z,149.77
2019-04-25T11:19:44.520Z,151.42
2019-04-25T11:22:15.563Z,149.42
2019-04-25T11:24:46.338Z,149.00
2019-04-25T11:27:15.817Z,149.85
2019-04-25T11:29:46.252Z,150.85
2019-04-25T11:32:14.968Z,152.72
2019-04-25T11:34:43.157Z,153.50
2019-04-25T11:37:39.787Z,156.72
2019-04-25T11:40:23.418Z,151.75
2019-04-25T11:42:51.451Z,150.93
2019-04-25T11:45:21.817Z,152.30
2019-04-25T11:48:11.249Z,153.93
2019-04-25T11:50:48.495Z,149.60
2019-04-25T11:53:33.879Z,155.43
2019-04-25T11:56:15.490Z,156.40
2019-04-25T11:58:49.005Z,157.72
2019-04-25T12:01:25.353Z,158.87
2019-04-25T12:03:56.975Z,156.85
2019-04-25T12:06:29.378Z,159.72
2019-04-25T12:08:56.498Z,160.45
2019-04-25T12:11:27.077Z,156.80
2019-04-25T12:13:55.373Z,161.07
2019-04-25T12:16:32.374Z,154.20
2019-04-25T12:19:34.990Z,161.10
2019-04-25T12:21:56.741Z,157.60
2019-04-25T12:24:25.404Z,155.50
2019-04-25T12:26:55.993Z,157.85
2019-04-25T12:29:24.438Z,159.10
2019-04-25T12:31:53.863Z,161.15
2019-04-25T12:34:21.258Z,163.75
2019-04-25T12:36:50.242Z,162.03
2019-04-25T12:39:17.552Z,158.50
2019-04-25T12:41:46.894Z,155.82
2019-04-25T12:44:31.849Z,155.18
2019-04-25T12:47:03.275Z,155.37
2019-04-25T12:49:30.776Z,156.18
2019-04-25T12:51:58.735Z,152.17
2019-04-25T12:54:25.784Z,152.82
2019-04-25T12:56:53.720Z,150.95
2019-04-25T12:59:22.043Z,157.47
2019-04-25T13:01:49.514Z,157.00
2019-04-25T13:04:34.952Z,157.55
2019-04-25T13:07:04.053Z,153.15
2019-04-25T13:09:31.224Z,158.20
2019-04-25T13:12:00.081Z,153.53
2019-04-25T13:14:27.151Z,152.70
2019-04-25T13:16:55.557Z,154.57
2019-04-25T13:19:26.418Z,152.70
2019-04-25T13:21:54.406Z,153.38
2019-04-25T13:24:24.410Z,155.65
2019-04-25T13:26:58.556Z,153.78
2019-04-25T13:29:58.773Z,153.75
2019-04-25T13:32:38.579Z,154.23
2019-04-25T13:35:11.527Z,152.45
2019-04-25T13:37:47.066Z,156.18
2019-04-25T13:40:17.523Z,156.80
2019-04-25T13:42:53.095Z,157.55
2019-04-25T13:45:26.555Z,157.03
2019-04-25T13:47:55.495Z,153.42
2019-04-25T13:50:24.626Z,151.60
2019-04-25T13:52:51.439Z,154.97
2019-04-25T13:55:18.544Z,151.18
2019-04-25T13:57:45.835Z,153.68
2019-04-25T14:00:14.669Z,151.65
2019-04-25T14:02:41.919Z,153.90
2019-04-25T14:05:09.123Z,154.05
2019-04-25T14:07:37.450Z,151.22
2019-04-25T14:10:05.751Z,153.42
2019-04-25T14:12:37.485Z,155.40
2019-04-25T14:15:07.401Z,152.95
2019-04-25T14:17:55.302Z,154.80
2019-04-25T14:20:43.942Z,153.87
2019-04-25T14:23:13.430Z,154.35
2019-04-25T14:25:40.532Z,157.52
2019-04-25T14:28:08.037Z,152.02
2019-04-25T14:30:36.214Z,153.20
2019-04-25T14:33:03.792Z,156.28
2019-04-25T14:35:33.235Z,155.95
2019-04-25T14:38:00.881Z,154.25
2019-04-25T14:40:42.275Z,157.90
2019-04-25T14:43:10.149Z,156.97
2019-04-25T14:45:44.308Z,155.82
2019-04-25T14:48:06.159Z,157.10
2019-04-25T14:50:35.929Z,155.95
2019-04-25T14:53:03.678Z,160.35
2019-04-25T14:55:54.258Z,160.22
2019-04-25T14:58:23.019Z,161.52
2019-04-25T15:00:52.450Z,158.18
2019-04-25T15:03:26.613Z,157.30
2019-04-25T15:05:53.653Z,157.27
2019-04-25T15:08:20.818Z,156.28
2019-04-25T15:10:55.542Z,161.37
2019-04-25T15:13:24.396Z,160.22
2019-04-25T15:15:51.470Z,162.00
2019-04-25T15:18:19.863Z,161.97
2019-04-25T15:20:51.228Z,163.55
2019-04-25T15:23:23.178Z,160.22
2019-04-25T15:25:51.339Z,156.57
2019-04-25T15:28:18.371Z,157.85
2019-04-25T15:30:46.000Z,157.25
2019-04-25T15:33:16.678Z,160.70
2019-04-25T15:35:55.802Z,155.95
2019-04-25T15:38:41.210Z,158.00
2019-04-25T15:41:14.817Z,155.40
2019-04-25T15:43:54.045Z,156.87
2019-04-25T15:46:28.386Z,156.12
2019-04-25T15:48:55.561Z,159.72
2019-04-25T15:51:25.433Z,162.15
2019-04-25T15:53:53.243Z,158.75
2019-04-25T15:56:21.733Z,158.32
2019-04-25T15:58:49.034Z,158.00
2019-04-25T16:01:16.472Z,156.15
2019-04-25T16:03:43.631Z,154.72
2019-04-25T16:06:11.775Z,154.93
2019-04-25T16:08:40.689Z,153.35
2019-04-25T16:11:07.851Z,154.18
2019-04-25T16:13:35.857Z,155.97
2019-04-25T16:16:03.950Z,152.95
2019-04-25T16:18:33.158Z,156.45
2019-04-25T16:21:00.336Z,156.45
2019-04-25T16:23:27.820Z,157.12
2019-04-25T16:25:56.091Z,157.52
2019-04-25T16:28:23.455Z,162.95
2019-04-25T16:30:55.255Z,159.10
2019-04-25T16:33:27.087Z,161.73
2019-04-25T16:35:57.551Z,156.28
2019-04-25T16:38:27.437Z,156.00
2019-04-25T16:40:58.249Z,154.72
2019-04-25T16:43:28.589Z,152.07
2019-04-25T16:45:56.611Z,152.78
2019-04-25T16:48:24.185Z,152.43
2019-04-25T16:50:51.260Z,156.80
2019-04-25T16:53:18.393Z,153.65
2019-04-25T16:55:45.645Z,157.60
2019-04-25T16:58:13.065Z,154.90
2019-04-25T17:01:05.816Z,159.85
2019-04-25T17:03:33.530Z,161.52
2019-04-25T17:06:00.673Z,158.35
2019-04-25T17:08:27.844Z,160.80
2019-04-25T17:10:54.926Z,162.62
2019-04-25T17:13:22.022Z,159.27
2019-04-25T17:16:08.175Z,160.90
2019-04-25T17:18:47.986Z,160.32
2019-04-25T17:21:15.578Z,162.27
2019-04-25T17:23:43.993Z,160.85
2019-04-25T17:26:13.975Z,158.15
2019-04-25T17:28:47.766Z,159.25
2019-04-25T17:31:30.122Z,154.82
2019-04-25T17:34:16.598Z,152.68
2019-04-25T17:36:54.549Z,152.97
2019-04-25T17:39:30.035Z,150.00
2019-04-25T17:41:57.169Z,148.50
2019-04-25T17:44:40.562Z,146.22
2019-04-25T17:47:09.782Z,146.60
2019-04-25T17:49:46.846Z,143.90
2019-04-25T17:52:16.999Z,144.28
2019-04-25T17:54:45.191Z,144.13
2019-04-25T17:57:12.310Z,143.10
2019-04-25T17:59:39.356Z,144.40
2019-04-25T18:02:08.506Z,142.72
2019-04-25T18:04:38.315Z,140.88
2019-04-25T18:07:05.735Z,141.88
2019-04-25T18:09:35.486Z,143.22
2019-04-25T18:12:03.843Z,142.70
2019-04-25T18:14:31.224Z,140.80
2019-04-25T18:16:58.359Z,142.90
2019-04-25T18:19:38.625Z,142.40
2019-04-25T18:22:39.156Z,141.35
2019-04-25T18:25:36.941Z,141.10
2019-04-25T18:28:09.328Z,142.07
2019-04-25T18:30:37.000Z,141.88
2019-04-25T18:33:17.842Z,143.25
2019-04-25T18:35:46.088Z,144.62
2019-04-25T18:38:29.531Z,141.40
2019-04-25T18:41:06.134Z,141.35
2019-04-25T18:43:40.119Z,141.37
2019-04-25T18:46:18.944Z,140.77
2019-04-25T18:48:47.077Z,141.30
2019-04-25T18:51:18.786Z,143.10
2019-04-25T18:54:05.643Z,143.32
2019-04-25T18:56:56.337Z,142.60
2019-04-25T18:59:49.812Z,140.95
2019-04-25T19:02:38.546Z,140.70
2019-04-25T19:05:23.939Z,140.52
2019-04-25T19:07:54.407Z,139.57
2019-04-25T19:10:22.329Z,141.00
2019-04-25T19:12:50.529Z,141.60
2019-04-25T19:15:18.165Z,141.75
2019-04-25T19:17:47.412Z,142.57
2019-04-25T19:20:18.309Z,139.97
2019-04-25T19:22:45.846Z,139.65
2019-04-25T19:25:18.424Z,139.92
2019-04-25T19:27:46.546Z,139.43
2019-04-25T19:30:18.758Z,139.60
2019-04-25T19:32:47.200Z,141.18
2019-04-25T19:35:16.322Z,141.45
2019-04-25T19:37:43.889Z,140.30
2019-04-25T19:40:44.588Z,141.57
2019-04-25T19:43:36.181Z,141.18
2019-04-25T19:46:05.333Z,140.90
2019-04-25T19:48:34.618Z,143.02
2019-04-25T19:51:02.929Z,139.82
2019-04-25T19:53:30.164Z,142.68
2019-04-25T19:56:02.646Z,139.43
2019-04-25T19:58:29.950Z,140.52
2019-04-25T20:00:58.567Z,139.50
2019-04-25T20:03:53.776Z,139.10
2019-04-25T20:06:39.735Z,138.45
2019-04-25T20:09:36.808Z,139.37
2019-04-25T20:12:04.534Z,138.68
2019-04-25T20:14:35.365Z,139.15
2019-04-25T20:17:02.575Z,139.03
2019-04-25T20:19:29.653Z,138.92
2019-04-25T20:21:56.905Z,139.70
2019-04-25T20:24:23.999Z,141.10
2019-04-25T20:26:51.299Z,140.37
2019-04-25T20:29:18.422Z,139.10
2019-04-25T20:31:48.656Z,142.05
2019-04-25T20:34:15.915Z,140.22
2019-04-25T20:36:43.216Z,138.70
2019-04-25T20:39:10.291Z,141.15
2019-04-25T20:41:39.346Z,140.03
2019-04-25T20:44:08.775Z,139.07
2019-04-25T20:46:35.868Z,139.32
2019-04-25T20:49:02.931Z,138.85
2019-04-25T20:51:30.556Z,137.82
2019-04-25T20:53:59.675Z,139.30
2019-04-25T20:56:33.320Z,140.00
2019-04-25T20:59:02.942Z,143.05
2019-04-25T21:01:33.753Z,144.20
2019-04-25T21:04:12.734Z,141.28
2019-04-25T21:06:34.337Z,140.60
2019-04-25T21:09:04.378Z,139.37
2019-04-25T21:11:34.436Z,138.25
2019-04-25T21:14:19.695Z,138.00
2019-04-25T21:17:08.440Z,139.57
2019-04-25T21:19:38.720Z,138.47
2019-04-25T21:22:05.772Z,138.20
2019-04-25T21:24:33.184Z,138.05
2019-04-25T21:27:01.007Z,137.40
2019-04-25T21:29:28.122Z,138.15
2019-04-25T21:31:56.735Z,137.18
2019-04-25T21:34:31.777Z,137.75
2019-04-25T21:36:59.733Z,137.97
2019-04-25T21:39:35.491Z,138.20
2019-04-25T21:42:14.314Z,137.52
2019-04-25T21:44:41.720Z,139.00
2019-04-25T21:47:09.210Z,140.22
2019-04-25T21:49:42.858Z,137.70
2019-04-25T21:52:10.188Z,139.80
2019-04-25T21:54:38.666Z,138.95
2019-04-25T21:57:06.965Z,138.35
2019-04-25T21:59:34.145Z,138.95
2019-04-25T22:02:04.887Z,139.37
2019-04-25T22:04:38.759Z,137.22
2019-04-25T22:07:03.060Z,138.62
2019-04-25T22:09:30.558Z,137.30
2019-04-25T22:11:59.329Z,137.43
2019-04-25T22:14:27.893Z,139.30
2019-04-25T22:16:57.664Z,138.07
2019-04-25T22:19:25.505Z,139.35
2019-04-25T22:21:57.413Z,137.92
2019-04-25T22:24:24.896Z,137.75
2019-04-25T22:26:54.169Z,136.52
2019-04-25T22:29:24.045Z,138.55
2019-04-25T22:32:04.520Z,137.72
2019-04-25T22:34:51.736Z,137.90
2019-04-25T22:37:09.930Z,137.52
2019-04-25T22:39:37.565Z,139.03
2019-04-25T22:42:05.826Z,136.55
2019-04-25T22:44:33.578Z,138.07
2019-04-25T22:47:02.231Z,137.03
2019-04-25T22:49:30.610Z,137.30
2019-04-25T22:51:57.901Z,136.92
2019-04-25T22:54:26.760Z,136.70
2019-04-25T22:56:53.846Z,138.37
2019-04-25T22:59:22.420Z,138.45
2019-04-25T23:02:10.199Z,137.70
2019-04-25T23:05:09.079Z,136.22
2019-04-25T23:07:29.855Z,137.90
2019-04-25T23:09:57.444Z,137.43
2019-04-25T23:12:24.980Z,136.57
2019-04-25T23:14:52.216Z,136.50
2019-04-25T23:17:19.410Z,136.05
2019-04-25T23:19:47.926Z,136.57
2019-04-25T23:22:15.147Z,135.80
2019-04-25T23:24:48.686Z,136.55
2019-04-25T23:27:50.780Z,136.03
2019-04-25T23:30:20.004Z,135.10
2019-04-25T23:32:49.118Z,135.82
2019-04-25T23:35:27.573Z,135.43
2019-04-25T23:37:46.270Z,136.10
2019-04-25T23:40:13.759Z,135.40
2019-04-25T23:42:43.212Z,135.30
2019-04-25T23:45:10.395Z,136.52
2019-04-25T23:47:37.790Z,137.25
2019-04-25T23:50:07.037Z,136.47
2019-04-25T23:52:34.282Z,136.88
2019-04-25T23:55:01.334Z,137.97
2019-04-25T23:57:28.433Z,137.45
2019-04-25T23:59:55.469Z,137.60
